Time;durP1;ratioP1;P1;durP2;ratioP2;P2;SDS_P1;SDS_P2;PMS_P1;PMS_P2;Temp;Humidity;BMP_temperature;BMP_pressure;BME280_temperature;BME280_humidity;BME280_pressure;Samples;Min_cycle;Max_cycle;Signal;HPM_P1;HPM_P2
2021/06/19 00:02:12;;;;;;;21.83;8.18;;;;;;;18.60;78.45;95629.56;4974532;28;20207;-74
2021/06/19 00:04:38;;;;;;;24.27;8.55;;;;;;;18.73;78.30;95607.78;4974219;28;20227;-74
2021/06/19 00:07:04;;;;;;;14.63;7.60;;;;;;;18.69;78.55;95638.94;4979196;28;20214;-74
2021/06/19 00:09:30;;;;;;;14.68;8.05;;;;;;;18.53;79.21;95655.81;4999815;28;20176;-74
2021/06/19 00:11:55;;;;;;;16.60;7.40;;;;;;;18.56;77.39;95665.16;4975322;28;20180;-74
2021/06/19 00:14:21;;;;;;;22.33;7.18;;;;;;;18.59;77.35;95665.59;4982160;28;20278;-74
2021/06/19 00:16:47;;;;;;;19.85;7.40;;;;;;;18.70;75.76;95687.09;4989300;28;20278;-75
2021/06/19 00:19:12;;;;;;;16.60;8.32;;;;;;;18.85;75.79;95695.69;4997648;28;20175;-74
2021/06/19 00:21:37;;;;;;;19.98;7.90;;;;;;;18.93;76.85;95717.41;5014991;28;20262;-75
2021/06/19 00:24:03;;;;;;;15.63;9.00;;;;;;;18.93;77.74;95729.75;5014218;28;20266;-75
2021/06/19 00:26:28;;;;;;;19.67;7.90;;;;;;;18.94;77.16;95741.88;5005553;28;20226;-75
2021/06/19 00:28:54;;;;;;;15.75;8.38;;;;;;;19.00;77.01;95741.13;4963922;28;20625;-74
2021/06/19 00:31:19;;;;;;;17.23;7.68;;;;;;;18.93;77.54;95754.22;4995215;28;20179;-75
2021/06/19 00:33:44;;;;;;;22.98;9.20;;;;;;;18.77;78.68;95751.09;4977444;28;20678;-74
2021/06/19 00:36:10;;;;;;;22.42;9.02;;;;;;;18.87;79.12;95752.38;4984414;28;20222;-74
2021/06/19 00:38:35;;;;;;;21.55;9.52;;;;;;;18.73;80.03;95747.22;4985572;28;20523;-75
2021/06/19 00:41:00;;;;;;;19.58;8.90;;;;;;;18.73;80.16;95734.91;4995281;28;20210;-74
2021/06/19 00:43:26;;;;;;;22.83;8.65;;;;;;;18.79;79.15;95730.66;4977459;28;20237;-75
2021/06/19 00:45:51;;;;;;;25.02;9.25;;;;;;;18.87;79.04;95733.94;4978378;28;20229;-75
2021/06/19 00:48:16;;;;;;;18.33;8.27;;;;;;;18.87;78.61;95722.63;4992768;28;20207;-75
2021/06/19 00:50:43;;;;;;;18.48;8.60;;;;;;;18.88;78.74;95708.44;4977485;28;20188;-74
2021/06/19 00:53:08;;;;;;;14.82;7.97;;;;;;;18.96;78.59;95708.28;4961173;28;20197;-74
2021/06/19 00:55:34;;;;;;;18.27;8.85;;;;;;;19.02;78.86;95696.97;4977181;28;20570;-74
2021/06/19 00:58:02;;;;;;;16.95;8.35;;;;;;;19.04;78.35;95700.22;4966239;28;20648;-74
2021/06/19 01:00:27;;;;;;;19.17;8.35;;;;;;;18.91;78.98;95679.13;4983013;28;20203;-74
2021/06/19 01:02:56;;;;;;;16.77;7.63;;;;;;;18.88;79.14;95671.59;4977173;28;20214;-75
2021/06/19 01:05:23;;;;;;;20.80;8.32;;;;;;;18.94;79.47;95655.84;4993057;28;20207;-74
2021/06/19 01:07:48;;;;;;;16.63;8.75;;;;;;;18.85;79.89;95643.06;4983408;28;20687;-74
2021/06/19 01:10:13;;;;;;;19.35;8.23;;;;;;;18.82;80.14;95620.59;4969162;28;20176;-74
2021/06/19 01:12:40;;;;;;;16.48;8.35;;;;;;;18.94;80.07;95610.31;5009574;28;20210;-74
2021/06/19 01:15:06;;;;;;;17.90;8.48;;;;;;;19.07;79.33;95614.78;4994269;28;20564;-75
2021/06/19 01:17:32;;;;;;;17.70;8.27;;;;;;;19.07;80.93;95606.91;4993220;28;20422;-74
2021/06/19 01:20:03;;;;;;;19.02;8.15;;;;;;;19.15;80.61;95601.44;4986668;28;20188;-75
2021/06/19 01:22:29;;;;;;;16.02;8.40;;;;;;;19.20;80.21;95602.47;5013669;28;20176;-75
2021/06/19 01:24:56;;;;;;;18.30;7.63;;;;;;;19.25;78.82;95599.25;4996214;28;20187;-74
2021/06/19 01:27:25;;;;;;;16.67;8.20;;;;;;;19.20;77.83;95591.97;4996244;28;20234;-74
2021/06/19 01:29:50;;;;;;;18.30;8.63;;;;;;;19.12;78.86;95591.34;4970823;28;20188;-75
2021/06/19 01:32:15;;;;;;;17.67;8.50;;;;;;;19.10;78.92;95578.38;5001665;28;20183;-74
2021/06/19 01:34:41;;;;;;;15.10;8.60;;;;;;;19.05;78.32;95582.59;4976108;28;20721;-74
2021/06/19 01:37:06;;;;;;;13.48;7.68;;;;;;;19.06;76.95;95595.56;4994047;28;20176;-75
2021/06/19 01:39:31;;;;;;;17.38;7.93;;;;;;;18.99;75.97;95594.72;4997246;28;20211;-74
2021/06/19 01:41:56;;;;;;;15.55;7.53;;;;;;;18.96;76.36;95595.13;5004069;28;20179;-74
2021/06/19 01:44:22;;;;;;;14.73;7.75;;;;;;;19.01;76.77;95599.81;4960223;28;20592;-75
2021/06/19 01:46:47;;;;;;;18.83;8.57;;;;;;;19.14;76.33;95603.28;4960204;28;20190;-74
2021/06/19 01:49:13;;;;;;;11.52;7.25;;;;;;;19.12;76.20;95600.03;4960088;28;20236;-74
2021/06/19 01:51:38;;;;;;;19.48;7.95;;;;;;;19.13;77.20;95598.22;4985306;28;20188;-74
2021/06/19 01:54:04;;;;;;;18.88;8.55;;;;;;;19.16;77.06;95601.25;4985322;28;20184;-74
2021/06/19 01:56:29;;;;;;;18.60;8.63;;;;;;;19.13;77.00;95600.84;4981685;28;20679;-74
2021/06/19 01:58:54;;;;;;;17.27;8.90;;;;;;;19.12;76.92;95601.88;4993643;28;20176;-75
2021/06/19 02:01:20;;;;;;;18.02;8.70;;;;;;;19.09;77.21;95595.19;4997532;28;20180;-74
2021/06/19 02:03:46;;;;;;;18.48;8.77;;;;;;;19.09;76.95;95595.19;4983991;28;20195;-74
2021/06/19 02:06:12;;;;;;;18.42;8.88;;;;;;;19.03;77.39;95587.25;4959882;28;20203;-75
2021/06/19 02:08:38;;;;;;;15.00;8.50;;;;;;;19.04;77.62;95589.69;4975959;28;20204;-74
2021/06/19 02:11:05;;;;;;;19.10;8.40;;;;;;;18.95;79.03;95580.34;4992949;28;20226;-74
2021/06/19 02:13:30;;;;;;;13.70;8.60;;;;;;;18.91;79.23;95577.31;5004322;28;20195;-74
2021/06/19 02:15:56;;;;;;;24.27;10.27;;;;;;;18.84;79.64;95581.75;4977837;28;20250;-75
2021/06/19 02:18:22;;;;;;;21.83;9.15;;;;;;;18.80;78.88;95574.44;4993114;28;20207;-74
2021/06/19 02:20:52;;;;;;;16.02;8.65;;;;;;;18.81;78.59;95576.06;4975879;28;20267;-74
2021/06/19 02:23:22;;;;;;;17.95;9.30;;;;;;;18.83;78.49;95574.88;4984773;28;20594;-74
2021/06/19 02:25:51;;;;;;;15.10;9.15;;;;;;;18.74;79.13;95572.63;4991876;28;20199;-75
2021/06/19 02:28:19;;;;;;;19.58;9.43;;;;;;;18.67;79.31;95567.31;4995499;28;20210;-74
2021/06/19 02:30:46;;;;;;;14.57;9.02;;;;;;;18.69;79.17;95570.56;5012560;28;20558;-75
2021/06/19 02:33:12;;;;;;;12.50;8.70;;;;;;;18.58;79.41;95574.53;4991304;28;20210;-74
2021/06/19 02:35:41;;;;;;;13.45;8.90;;;;;;;18.64;79.92;95576.41;5000042;28;20515;-74
2021/06/19 02:38:07;;;;;;;15.00;8.77;;;;;;;18.75;78.84;95585.56;4975508;28;20168;-74
2021/06/19 02:40:33;;;;;;;19.15;9.35;;;;;;;18.78;78.87;95587.78;4975524;28;20172;-74
2021/06/19 02:42:59;;;;;;;15.85;9.77;;;;;;;18.64;79.44;95594.81;4976077;28;20211;-74
2021/06/19 02:45:25;;;;;;;17.38;10.15;;;;;;;18.61;80.02;95586.47;4985993;28;20678;-74
2021/06/19 02:47:55;;;;;;;12.77;9.25;;;;;;;18.66;79.69;95597.28;4961903;28;20199;-74
2021/06/19 02:50:24;;;;;;;15.77;9.23;;;;;;;18.57;80.11;95593.16;4975356;28;20233;-74
2021/06/19 02:52:50;;;;;;;16.25;9.82;;;;;;;18.66;79.33;95595.44;4992590;28;20550;-74
2021/06/19 02:55:17;;;;;;;12.88;9.52;;;;;;;18.76;79.03;95599.53;4983676;28;20203;-75
2021/06/19 02:57:43;;;;;;;11.95;8.88;;;;;;;18.77;78.39;95603.78;5008181;28;20175;-74
2021/06/19 03:00:10;;;;;;;16.75;9.02;;;;;;;18.80;78.33;95598.13;4994522;28;20190;-74
2021/06/19 03:02:36;;;;;;;15.77;9.50;;;;;;;18.83;78.49;95608.25;4994921;28;20183;-74
2021/06/19 03:05:04;;;;;;;15.68;8.75;;;;;;;18.90;77.82;95604.63;4991941;28;20226;-74
2021/06/19 03:07:29;;;;;;;12.48;8.70;;;;;;;18.96;77.82;95609.09;4982779;28;20206;-74
2021/06/19 03:09:54;;;;;;;18.48;9.38;;;;;;;18.92;78.01;95609.72;4975050;28;20180;-74
2021/06/19 03:12:20;;;;;;;14.40;9.65;;;;;;;18.96;77.40;95608.28;4992776;28;20259;-74
2021/06/19 03:14:45;;;;;;;11.10;9.25;;;;;;;18.99;77.53;95614.97;4974140;28;20200;-74
2021/06/19 03:17:12;;;;;;;10.52;9.18;;;;;;;19.04;77.19;95621.28;5010053;28;20448;-74
2021/06/19 03:19:38;;;;;;;15.82;9.32;;;;;;;19.06;77.18;95618.44;4979376;28;20179;-74
2021/06/19 03:22:03;;;;;;;11.30;9.40;;;;;;;19.13;77.19;95616.63;4974965;28;20172;-74
2021/06/19 03:24:29;;;;;;;13.23;9.63;;;;;;;19.13;77.24;95617.44;4974587;28;20183;-75
2021/06/19 03:26:54;;;;;;;11.30;8.68;;;;;;;19.09;77.44;95623.31;4983368;28;20480;-74
2021/06/19 03:29:20;;;;;;;14.02;9.15;;;;;;;18.96;78.06;95627.53;4965193;28;20176;-74
2021/06/19 03:31:46;;;;;;;16.58;10.25;;;;;;;18.91;78.79;95626.50;4974756;28;20266;-74
2021/06/19 03:34:11;;;;;;;15.13;9.95;;;;;;;18.84;78.95;95625.66;4974802;28;20238;-73
2021/06/19 03:36:36;;;;;;;11.77;9.70;;;;;;;18.83;79.37;95635.38;4962743;28;20517;-73
2021/06/19 03:39:02;;;;;;;11.32;9.85;;;;;;;18.82;79.19;95644.28;5001337;28;20672;-73
2021/06/19 03:41:28;;;;;;;11.57;9.57;;;;;;;18.88;78.91;95637.41;4992500;28;20184;-73
2021/06/19 03:43:53;;;;;;;12.98;9.43;;;;;;;18.89;78.53;95647.72;4974152;28;20250;-73
2021/06/19 03:46:18;;;;;;;16.25;9.88;;;;;;;18.95;78.53;95651.41;4993539;28;20203;-73
2021/06/19 03:48:44;;;;;;;15.23;9.93;;;;;;;19.00;78.43;95646.38;5003197;28;20203;-73
2021/06/19 03:51:09;;;;;;;13.65;10.30;;;;;;;19.02;78.51;95651.44;4993660;28;20195;-74
2021/06/19 03:53:34;;;;;;;17.00;10.30;;;;;;;19.06;78.36;95663.19;4995693;28;20187;-73
2021/06/19 03:56:00;;;;;;;13.30;9.48;;;;;;;19.16;78.01;95661.78;4978377;28;20200;-73
2021/06/19 03:58:25;;;;;;;14.48;8.82;;;;;;;19.25;77.73;95662.41;5002593;28;20598;-73
2021/06/19 04:00:50;;;;;;;15.43;8.73;;;;;;;19.35;76.48;95665.50;5007178;28;20199;-74
2021/06/19 04:03:16;;;;;;;14.70;9.65;;;;;;;19.52;76.95;95664.13;4997527;28;20175;-74
2021/06/19 04:05:41;;;;;;;12.57;9.07;;;;;;;19.71;75.58;95672.28;4981454;28;20205;-73
2021/06/19 04:08:06;;;;;;;12.38;9.50;;;;;;;19.98;74.93;95673.13;5014708;28;20219;-73
2021/06/19 04:10:32;;;;;;;13.68;8.48;;;;;;;20.24;73.25;95681.00;4988323;28;20235;-73
2021/06/19 04:12:57;;;;;;;10.82;8.63;;;;;;;20.52;72.54;95680.00;5005249;28;20178;-74
2021/06/19 04:15:22;;;;;;;14.18;9.13;;;;;;;21.35;70.34;95686.22;4995259;28;20200;-75
2021/06/19 04:17:48;;;;;;;14.45;8.55;;;;;;;21.84;68.02;95687.34;4978140;28;20176;-72
2021/06/19 04:20:14;;;;;;;12.23;8.25;;;;;;;22.55;66.36;95694.09;4969017;28;20234;-72
2021/06/19 04:22:40;;;;;;;11.13;8.05;;;;;;;22.85;65.57;95694.22;4985880;28;20210;-72
2021/06/19 04:25:07;;;;;;;13.18;8.40;;;;;;;22.95;64.80;95702.47;4977704;28;20195;-72
2021/06/19 04:27:41;;;;;;;10.70;7.88;;;;;;;23.52;62.58;95700.34;4977617;28;20208;-73
2021/06/19 04:30:08;;;;;;;11.00;8.15;;;;;;;23.36;62.33;95709.72;4965463;28;20267;-75
2021/06/19 04:32:33;;;;;;;13.45;7.68;;;;;;;22.86;63.98;95707.25;4989146;28;20245;-73
2021/06/19 04:34:59;;;;;;;12.80;8.35;;;;;;;22.54;65.47;95706.53;4996793;28;20207;-73
2021/06/19 04:37:27;;;;;;;13.00;8.05;;;;;;;22.25;66.34;95715.13;5014734;28;20179;-73
2021/06/19 04:40:02;;;;;;;9.75;7.75;;;;;;;22.42;66.27;95718.03;5014611;28;20238;-73
2021/06/19 04:42:34;;;;;;;12.18;7.95;;;;;;;23.59;61.59;95716.13;5005556;28;20182;-74
2021/06/19 04:45:02;;;;;;;11.52;7.65;;;;;;;25.00;58.38;95728.63;4996300;28;20699;-74
2021/06/19 04:47:27;;;;;;;12.48;7.18;;;;;;;26.45;51.38;95729.25;4994909;28;20242;-74
2021/06/19 04:49:53;;;;;;;12.05;7.75;;;;;;;27.09;49.82;95735.00;4977526;28;20180;-74
2021/06/19 04:52:19;;;;;;;10.65;6.38;;;;;;;27.45;49.88;95735.44;5002432;28;20956;-74
2021/06/19 04:54:45;;;;;;;12.57;6.47;;;;;;;28.55;45.66;95736.84;4973192;28;20614;-74
2021/06/19 04:57:10;;;;;;;13.18;6.25;;;;;;;28.86;44.65;95737.81;4993386;28;20250;-74
2021/06/19 04:59:35;;;;;;;9.43;6.03;;;;;;;29.63;43.32;95746.28;4993274;28;20661;-74
2021/06/19 05:02:01;;;;;;;7.90;6.38;;;;;;;29.25;44.14;95751.72;5011342;28;20187;-74
2021/06/19 05:04:27;;;;;;;9.98;6.20;;;;;;;30.07;41.79;95747.50;4971956;28;20271;-74
2021/06/19 05:06:52;;;;;;;7.50;6.22;;;;;;;30.02;42.09;95752.00;4996514;28;20176;-74
2021/06/19 05:09:18;;;;;;;11.77;6.82;;;;;;;30.03;42.09;95746.38;5014532;28;20534;-74
2021/06/19 05:11:43;;;;;;;8.30;6.65;;;;;;;28.33;45.18;95747.59;4996623;28;20172;-74
2021/06/19 05:14:08;;;;;;;13.48;7.03;;;;;;;27.61;47.30;95748.69;5004467;28;20191;-74
2021/06/19 05:16:33;;;;;;;8.07;6.43;;;;;;;26.70;50.05;95742.97;4981946;28;20203;-74
2021/06/19 05:18:59;;;;;;;13.10;7.63;;;;;;;25.52;53.92;95744.56;4976932;28;20575;-74
2021/06/19 05:21:24;;;;;;;11.93;7.30;;;;;;;26.01;52.48;95739.69;4994445;28;20180;-74
2021/06/19 05:23:49;;;;;;;11.07;6.65;;;;;;;27.45;48.93;95748.75;5000965;28;20214;-74
2021/06/19 05:26:15;;;;;;;11.05;7.18;;;;;;;28.93;44.54;95751.00;4984761;28;20195;-74
2021/06/19 05:28:40;;;;;;;10.48;6.63;;;;;;;29.22;43.45;95751.41;4994241;28;20207;-74
2021/06/19 05:31:06;;;;;;;13.07;6.80;;;;;;;30.16;40.62;95745.91;4976812;28;20179;-74
2021/06/19 05:33:31;;;;;;;8.65;6.55;;;;;;;29.34;42.76;95744.81;4960097;28;20203;-74
2021/06/19 05:35:56;;;;;;;14.38;6.95;;;;;;;28.32;45.56;95740.66;4986943;28;20216;-74
2021/06/19 05:38:22;;;;;;;11.90;6.88;;;;;;;29.10;44.68;95748.16;4996019;28;20206;-74
2021/06/19 05:40:47;;;;;;;11.15;6.90;;;;;;;28.98;44.30;95748.38;4979783;28;20770;-74
2021/06/19 05:43:12;;;;;;;7.95;6.15;;;;;;;29.77;43.12;95750.06;4995754;28;20190;-74
2021/06/19 05:45:38;;;;;;;11.75;6.35;;;;;;;29.48;43.37;95747.00;4971507;28;20210;-74
2021/06/19 05:48:04;;;;;;;11.13;5.65;;;;;;;29.22;43.57;95751.41;4984388;28;20222;-74
2021/06/19 05:50:29;;;;;;;11.05;6.82;;;;;;;29.63;44.11;95751.63;4976517;28;20179;-74
2021/06/19 05:52:55;;;;;;;8.52;6.65;;;;;;;30.20;41.38;95745.34;4976210;28;20172;-74
2021/06/19 05:55:21;;;;;;;12.40;6.40;;;;;;;30.77;40.17;95755.03;4997069;28;20203;-74
2021/06/19 05:57:46;;;;;;;11.40;5.82;;;;;;;31.67;37.76;95753.19;4971479;28;20258;-74
2021/06/19 06:00:12;;;;;;;8.60;5.95;;;;;;;31.46;39.31;95755.16;4976379;28;20640;-74
2021/06/19 06:02:40;;;;;;;8.82;5.90;;;;;;;30.39;40.45;95751.78;4993631;28;20267;-74
2021/06/19 06:05:05;;;;;;;9.40;5.97;;;;;;;28.92;43.67;95750.19;4976191;28;20198;-74
2021/06/19 06:07:30;;;;;;;6.97;6.22;;;;;;;28.58;45.00;95744.31;5002814;28;20203;-74
2021/06/19 06:09:56;;;;;;;12.52;6.70;;;;;;;29.56;41.69;95741.97;5008615;28;20183;-74
2021/06/19 06:12:21;;;;;;;11.10;6.28;;;;;;;30.43;40.64;95742.16;4995447;28;20635;-74
2021/06/19 06:14:46;;;;;;;11.63;5.90;;;;;;;30.33;39.55;95745.63;4995050;28;20253;-74
2021/06/19 06:17:12;;;;;;;8.05;5.55;;;;;;;28.94;42.74;95741.91;4987181;28;20171;-74
2021/06/19 06:19:37;;;;;;;10.85;6.07;;;;;;;29.52;41.74;95743.56;4995412;28;20175;-74
2021/06/19 06:22:03;;;;;;;10.75;5.95;;;;;;;30.01;39.84;95753.06;5012676;28;20198;-74
2021/06/19 06:24:29;;;;;;;8.50;5.25;;;;;;;31.20;37.32;95751.72;4994970;28;20186;-75
2021/06/19 06:26:54;;;;;;;8.80;4.72;;;;;;;31.49;37.10;95756.50;4984607;28;20445;-74
2021/06/19 06:29:19;;;;;;;7.38;5.20;;;;;;;32.41;34.60;95757.59;4995125;28;20241;-74
2021/06/19 06:31:45;;;;;;;8.95;5.40;;;;;;;31.40;36.07;95758.13;4995281;28;20171;-74
2021/06/19 06:34:10;;;;;;;9.05;4.30;;;;;;;32.23;34.91;95763.63;4994707;28;20180;-74
2021/06/19 06:36:35;;;;;;;5.63;4.15;;;;;;;32.44;32.73;95761.63;5003770;28;20207;-74
2021/06/19 06:39:04;;;;;;;9.68;4.40;;;;;;;32.50;32.55;95757.00;5001506;28;20229;-74
2021/06/19 06:41:30;;;;;;;6.88;4.93;;;;;;;32.54;32.74;95766.13;5011205;28;20174;-74
2021/06/19 06:43:55;;;;;;;4.70;4.15;;;;;;;32.77;32.07;95768.06;5012318;28;20195;-74
2021/06/19 06:46:21;;;;;;;11.98;4.53;;;;;;;32.79;32.83;95763.22;4993794;28;20741;-75
2021/06/19 06:48:46;;;;;;;11.27;4.50;;;;;;;32.43;33.17;95768.09;4986242;28;20230;-75
2021/06/19 06:51:11;;;;;;;8.48;4.88;;;;;;;32.06;34.52;95763.19;4975134;28;20270;-74
2021/06/19 06:53:37;;;;;;;7.65;4.28;;;;;;;32.66;31.51;95758.47;4958891;28;20176;-75
2021/06/19 06:56:02;;;;;;;7.05;4.18;;;;;;;32.65;32.02;95756.88;4992322;28;20203;-74
2021/06/19 06:58:27;;;;;;;9.75;4.47;;;;;;;31.65;33.24;95760.72;4998906;28;20176;-75
2021/06/19 07:00:53;;;;;;;7.45;4.05;;;;;;;32.28;33.56;95763.59;4992061;28;20183;-75
2021/06/19 07:03:18;;;;;;;8.45;5.22;;;;;;;31.93;34.98;95759.25;4994366;28;20194;-74
2021/06/19 07:05:43;;;;;;;6.43;5.35;;;;;;;31.69;38.18;95756.38;5011961;28;20218;-74
2021/06/19 07:08:09;;;;;;;9.45;5.55;;;;;;;32.02;37.17;95770.22;4988112;28;20638;-75
2021/06/19 07:10:35;;;;;;;10.88;5.63;;;;;;;31.51;37.99;95770.44;4983119;28;20180;-75
2021/06/19 07:13:00;;;;;;;8.43;5.97;;;;;;;31.63;37.08;95762.88;4974755;28;20211;-75
2021/06/19 07:15:25;;;;;;;8.02;5.63;;;;;;;30.90;39.34;95754.47;4992128;28;20222;-75
2021/06/19 07:17:51;;;;;;;6.95;4.60;;;;;;;31.12;36.35;95754.97;4975178;28;20250;-75
2021/06/19 07:20:18;;;;;;;6.07;4.78;;;;;;;30.23;37.43;95752.88;5001313;28;20191;-75
2021/06/19 07:22:43;;;;;;;8.32;4.57;;;;;;;29.85;39.13;95758.38;4995665;28;20258;-75
2021/06/19 07:25:10;;;;;;;9.10;4.43;;;;;;;30.06;36.39;95751.22;4974472;28;20231;-74
2021/06/19 07:27:36;;;;;;;10.18;3.78;;;;;;;29.37;38.22;95743.47;4974751;28;20202;-74
2021/06/19 07:30:02;;;;;;;10.82;4.20;;;;;;;29.26;37.85;95745.31;4999537;28;20187;-74
2021/06/19 07:32:27;;;;;;;8.32;4.35;;;;;;;30.30;37.54;95740.78;4966332;28;20172;-74
2021/06/19 07:34:53;;;;;;;5.43;4.22;;;;;;;31.28;37.03;95735.09;4991515;28;20683;-74
2021/06/19 07:37:19;;;;;;;7.30;4.25;;;;;;;30.88;36.75;95732.50;4991927;28;20172;-74
2021/06/19 07:39:44;;;;;;;8.02;4.30;;;;;;;29.63;38.85;95727.56;4976768;28;20249;-74
2021/06/19 07:42:09;;;;;;;11.93;4.45;;;;;;;30.63;38.33;95728.75;4982782;28;20207;-74
2021/06/19 07:44:35;;;;;;;8.60;4.72;;;;;;;30.98;36.82;95729.78;4991573;28;20199;-74
2021/06/19 07:47:00;;;;;;;7.30;4.72;;;;;;;31.27;37.25;95728.13;4974472;28;20188;-74
2021/06/19 07:49:26;;;;;;;8.38;4.70;;;;;;;30.08;39.48;95729.53;4974489;28;20172;-74
2021/06/19 07:51:52;;;;;;;6.10;4.85;;;;;;;30.49;38.46;95722.34;4980238;28;20196;-74
2021/06/19 07:54:17;;;;;;;7.38;5.13;;;;;;;29.40;39.81;95716.19;4965246;28;20180;-74
2021/06/19 07:56:43;;;;;;;18.75;9.27;;;;;;;29.65;39.83;95707.47;4958242;28;20184;-74
2021/06/19 07:59:08;;;;;;;11.23;6.88;;;;;;;28.69;42.49;95713.13;4974443;28;20263;-74
2021/06/19 08:01:34;;;;;;;8.63;5.65;;;;;;;29.52;42.29;95714.16;4996853;28;20177;-74
2021/06/19 08:03:59;;;;;;;9.38;5.97;;;;;;;29.53;42.10;95721.09;4985358;28;20179;-74
2021/06/19 08:06:24;;;;;;;10.90;6.60;;;;;;;29.33;42.65;95715.63;4993472;28;20717;-74
2021/06/19 08:08:50;;;;;;;10.40;6.28;;;;;;;29.32;42.06;95714.03;5011355;28;20203;-74
2021/06/19 08:11:15;;;;;;;11.98;7.90;;;;;;;28.54;43.38;95713.84;5011445;28;20313;-74
2021/06/19 08:13:40;;;;;;;10.98;6.00;;;;;;;28.24;45.58;95711.69;4984096;28;20187;-74
2021/06/19 08:16:06;;;;;;;13.77;8.63;;;;;;;28.29;44.32;95709.13;4992397;28;20219;-74
2021/06/19 08:18:32;;;;;;;12.30;6.88;;;;;;;28.65;44.54;95717.41;4974199;28;20230;-74
2021/06/19 08:20:57;;;;;;;10.15;6.32;;;;;;;29.02;43.05;95718.19;4991566;28;20183;-74
2021/06/19 08:23:23;;;;;;;8.85;6.18;;;;;;;28.62;44.59;95717.88;4980429;28;20175;-74
2021/06/19 08:25:48;;;;;;;8.55;6.13;;;;;;;28.32;45.33;95711.28;4999417;28;20691;-74
2021/06/19 08:28:14;;;;;;;9.95;5.63;;;;;;;27.89;46.95;95712.19;4974028;28;20210;-74
2021/06/19 08:30:39;;;;;;;9.65;6.35;;;;;;;28.09;47.62;95712.38;4958165;28;20545;-74
2021/06/19 08:33:04;;;;;;;13.15;7.10;;;;;;;27.89;47.74;95707.66;4976274;28;20179;-74
2021/06/19 08:35:30;;;;;;;8.80;6.03;;;;;;;27.82;48.04;95712.38;5006045;28;20277;-74
2021/06/19 08:37:55;;;;;;;11.90;6.32;;;;;;;27.89;47.04;95713.00;4997259;28;20171;-74
2021/06/19 08:40:21;;;;;;;8.65;6.40;;;;;;;27.94;47.00;95715.72;4996850;28;20590;-74
2021/06/19 08:42:46;;;;;;;11.20;6.80;;;;;;;27.01;49.97;95706.06;4997143;28;20666;-74
2021/06/19 08:45:12;;;;;;;12.88;6.18;;;;;;;27.11;48.08;95703.56;4988397;28;20211;-74
2021/06/19 08:47:39;;;;;;;10.20;6.97;;;;;;;27.14;49.16;95710.28;4998585;28;20198;-74
2021/06/19 08:50:11;;;;;;;7.97;6.93;;;;;;;27.74;48.55;95712.03;4980278;28;20184;-74
2021/06/19 08:52:38;;;;;;;10.35;6.93;;;;;;;27.73;48.63;95711.22;4983731;28;20695;-74
2021/06/19 08:55:06;;;;;;;11.32;7.03;;;;;;;27.51;49.89;95713.09;4984297;28;20257;-74
2021/06/19 08:57:31;;;;;;;11.65;6.93;;;;;;;27.54;48.82;95717.94;4985983;28;20436;-73
2021/06/19 08:59:57;;;;;;;12.88;7.47;;;;;;;28.27;46.72;95713.06;4989046;28;20278;-74
2021/06/19 09:02:22;;;;;;;9.35;6.85;;;;;;;28.55;47.08;95711.97;4980048;28;20187;-74
2021/06/19 09:05:07;;;;;;;11.48;7.38;;;;;;;28.50;45.58;95710.88;4982913;28;20238;-74
2021/06/19 09:07:50;;;;;;;10.35;7.07;;;;;;;28.90;45.13;95711.44;4965435;28;20192;-74
2021/06/19 09:10:16;;;;;;;12.27;7.13;;;;;;;28.38;46.65;95707.59;4984634;28;20176;-74
2021/06/19 09:13:15;;;;;;;8.57;7.20;;;;;;;28.98;46.94;95709.09;4982042;28;20286;-75
2021/06/19 09:15:44;;;;;;;12.00;6.63;;;;;;;29.19;44.66;95707.28;4913389;29;20277;-75
2021/06/19 09:18:28;;;;;;;10.95;6.68;;;;;;;29.61;44.41;95711.75;4914329;29;20183;-75
2021/06/19 09:20:56;;;;;;;13.70;7.10;;;;;;;29.83;43.71;95703.50;4915061;29;20194;-76
2021/06/19 09:23:32;;;;;;;8.20;6.57;;;;;;;29.79;42.34;95699.75;4898941;29;20658;-75
2021/06/19 09:26:07;;;;;;;12.40;7.60;;;;;;;29.65;44.80;95691.44;4914315;29;20682;-76
2021/06/19 09:28:53;;;;;;;11.27;7.22;;;;;;;29.43;44.25;95682.78;4913115;29;20210;-75
2021/06/19 09:31:50;;;;;;;8.75;7.78;;;;;;;29.67;45.44;95683.94;4928358;29;20581;-74
2021/06/19 09:34:23;;;;;;;13.57;7.30;;;;;;;29.71;43.37;95681.53;4913276;29;20231;-74
2021/06/19 09:37:03;;;;;;;13.98;8.13;;;;;;;29.58;44.48;95677.50;4910643;29;20187;-75
2021/06/19 09:39:30;;;;;;;11.52;8.00;;;;;;;29.40;46.82;95672.59;4898200;29;20560;-77
2021/06/19 09:41:58;;;;;;;10.75;7.30;;;;;;;29.49;44.79;95669.16;4898809;29;20593;-76
2021/06/19 09:44:38;;;;;;;14.88;8.05;;;;;;;30.10;43.44;95665.81;4913972;29;20241;-76
2021/06/19 09:47:04;;;;;;;16.35;7.82;;;;;;;28.89;44.39;95659.84;4914653;29;20246;-76
2021/06/19 09:49:32;;;;;;;12.15;7.95;;;;;;;29.63;43.09;95663.34;4907751;29;20191;-75
2021/06/19 09:51:58;;;;;;;15.20;7.88;;;;;;;29.58;44.26;95654.22;4946321;28;20267;-76
2021/06/19 09:54:23;;;;;;;13.50;8.65;;;;;;;29.79;43.16;95648.91;4975883;28;20339;-75
2021/06/19 09:56:59;;;;;;;12.98;7.47;;;;;;;29.90;42.16;95642.47;4959898;28;20314;-76
2021/06/19 09:59:33;;;;;;;13.23;7.47;;;;;;;29.64;42.39;95646.19;4981927;28;20184;-75
2021/06/19 10:02:00;;;;;;;11.45;7.30;;;;;;;30.23;42.45;95648.41;4984226;28;20258;-76
2021/06/19 10:04:27;;;;;;;13.70;7.85;;;;;;;29.88;43.22;95644.63;4959505;28;20229;-76
2021/06/19 10:06:53;;;;;;;18.70;8.23;;;;;;;30.24;43.88;95637.44;4959898;28;20561;-76
2021/06/19 10:09:19;;;;;;;10.90;7.15;;;;;;;30.20;42.06;95636.34;4979178;28;20191;-76
2021/06/19 10:11:50;;;;;;;10.75;7.32;;;;;;;30.40;41.53;95632.84;4979229;28;20199;-75
2021/06/19 10:14:18;;;;;;;18.70;7.32;;;;;;;29.40;42.98;95619.09;4959327;28;20307;-75
2021/06/19 10:16:49;;;;;;;13.27;7.70;;;;;;;29.88;43.13;95621.34;4976144;28;20183;-75
2021/06/19 10:19:18;;;;;;;11.18;7.47;;;;;;;29.53;44.49;95624.78;4959539;28;20183;-75
2021/06/19 10:21:44;;;;;;;15.65;8.15;;;;;;;29.64;45.22;95627.47;4987477;28;20191;-75
2021/06/19 10:24:10;;;;;;;13.15;7.95;;;;;;;29.79;44.21;95619.47;4975700;28;20262;-76
2021/06/19 10:26:37;;;;;;;16.77;8.05;;;;;;;29.60;44.64;95620.00;4975635;28;20202;-76
2021/06/19 10:29:04;;;;;;;16.13;7.68;;;;;;;30.05;42.41;95621.06;4959494;28;20211;-76
2021/06/19 10:31:37;;;;;;;13.57;7.50;;;;;;;29.69;44.73;95619.47;4981230;28;20254;-76
2021/06/19 10:34:38;;;;;;;19.98;8.60;;;;;;;29.72;43.93;95611.69;4983182;28;20259;-76
2021/06/19 10:37:08;;;;;;;11.75;7.53;;;;;;;30.04;41.07;95611.44;4998837;28;20210;-77
2021/06/19 10:39:34;;;;;;;11.45;7.45;;;;;;;30.03;42.33;95615.16;4978914;28;20534;-76
2021/06/19 10:42:01;;;;;;;15.85;7.75;;;;;;;29.77;42.83;95610.88;4990690;28;20218;-74
2021/06/19 10:44:49;;;;;;;16.48;7.38;;;;;;;29.86;43.31;95598.56;4980807;28;20267;-75
2021/06/19 10:47:16;;;;;;;10.23;7.68;;;;;;;30.15;41.98;95604.22;4975214;28;20172;-77
2021/06/19 10:49:42;;;;;;;15.02;7.57;;;;;;;30.20;40.05;95608.75;4978037;28;20192;-76
2021/06/19 10:52:23;;;;;;;14.77;7.00;;;;;;;30.14;39.40;95605.31;4985915;28;20238;-75
2021/06/19 10:55:10;;;;;;;13.88;7.05;;;;;;;30.44;39.38;95596.41;4993241;28;20218;-77
2021/06/19 10:57:46;;;;;;;13.00;7.25;;;;;;;30.33;40.79;95586.78;5009808;28;20186;-77
2021/06/19 11:00:25;;;;;;;10.75;6.78;;;;;;;30.03;40.46;95583.03;4992555;28;20206;-77
2021/06/19 11:02:52;;;;;;;9.45;6.70;;;;;;;30.16;39.81;95584.41;5008511;28;20191;-76
2021/06/19 11:05:45;;;;;;;16.13;7.18;;;;;;;30.12;40.08;95576.09;4965182;28;20250;-76
2021/06/19 11:08:14;;;;;;;15.65;6.97;;;;;;;30.33;37.99;95573.41;4994821;28;20238;-77
2021/06/19 11:10:42;;;;;;;14.68;7.30;;;;;;;30.44;38.73;95583.00;4994447;28;20171;-77
2021/06/19 11:13:30;;;;;;;15.18;7.68;;;;;;;29.97;38.98;95581.44;5009047;28;20237;-77
2021/06/19 11:16:02;;;;;;;15.27;7.05;;;;;;;30.12;40.00;95578.78;4987120;28;20203;-76
2021/06/19 11:18:50;;;;;;;15.63;6.60;;;;;;;30.67;38.53;95573.59;4994314;28;20270;-75
2021/06/19 11:21:19;;;;;;;10.40;5.93;;;;;;;30.71;37.44;95567.41;5012039;28;20171;-76
2021/06/19 11:23:59;;;;;;;11.13;6.55;;;;;;;31.17;38.24;95572.53;4993165;28;20643;-75
2021/06/19 11:26:43;;;;;;;15.93;7.80;;;;;;;31.10;36.29;95566.72;5000172;28;20202;-76
2021/06/19 11:29:34;;;;;;;12.98;6.63;;;;;;;31.15;36.66;95563.97;4974801;28;20658;-76